createdAt,value
2015-09-28T00:00:11.829Z,42.3
2015-09-28T00:00:24.219Z,42.2
2015-09-28T00:00:36.610Z,42.11
2015-09-28T00:00:49.000Z,42.39
2015-09-28T00:01:01.407Z,42.3
2015-09-28T00:01:13.832Z,42.58
2015-09-28T00:01:26.238Z,42.2
2015-09-28T00:01:38.660Z,42.77
2015-09-28T00:01:51.066Z,42.77
2015-09-28T00:02:03.457Z,42.58
2015-09-28T00:02:15.850Z,42.96
2015-09-28T00:02:28.241Z,43.24
2015-09-28T00:02:40.631Z,43.43
2015-09-28T00:02:53.038Z,43.43
2015-09-28T00:03:05.444Z,43.33
2015-09-28T00:03:17.868Z,43.24
2015-09-28T00:03:30.290Z,43.15
2015-09-28T00:03:42.712Z,42.77
2015-09-28T00:03:55.133Z,42.58
2015-09-28T00:04:07.540Z,42.67
2015-09-28T00:04:19.933Z,42.77
2015-09-28T00:04:32.324Z,42.58
2015-09-28T00:04:44.730Z,42.01
2015-09-28T00:04:57.121Z,42.39
2015-09-28T00:05:09.527Z,42.3
2015-09-28T00:05:21.921Z,42.2
2015-09-28T00:05:34.343Z,42.11
2015-09-28T00:05:46.764Z,42.11
2015-09-28T00:05:59.202Z,42.2
2015-09-28T00:06:11.624Z,42.48
2015-09-28T00:06:24.017Z,41.73
2015-09-28T00:06:36.424Z,41.54
2015-09-28T00:06:48.814Z,40.88
2015-09-28T00:07:01.205Z,40.88
2015-09-28T00:07:13.598Z,40.31
2015-09-28T00:07:26.004Z,40.22
2015-09-28T00:07:38.410Z,40.31
2015-09-28T00:07:50.801Z,39.94
2015-09-28T00:08:03.223Z,39.84
2015-09-28T00:08:15.647Z,39.65
2015-09-28T00:08:28.038Z,39.46
2015-09-28T00:08:40.429Z,39.28
2015-09-28T00:08:52.663Z,39.37
2015-09-28T00:09:05.069Z,39.56
2015-09-28T00:09:17.307Z,39.46
2015-09-28T00:09:29.697Z,39.18
2015-09-28T00:09:42.104Z,38.8
2015-09-28T00:09:54.525Z,38.8
2015-09-28T00:10:06.916Z,38.9
2015-09-28T00:10:19.309Z,38.71
2015-09-28T00:10:31.715Z,39.56
2015-09-28T00:10:44.106Z,39.37
2015-09-28T00:10:56.496Z,39.37
2015-09-28T00:11:08.887Z,39.75
2015-09-28T00:11:21.280Z,40.12
2015-09-28T00:11:33.702Z,40.41
2015-09-28T00:11:46.109Z,40.69
2015-09-28T00:11:58.530Z,40.88
2015-09-28T00:12:10.780Z,41.35
2015-09-28T00:12:23.174Z,41.54
2015-09-28T00:12:35.565Z,42.01
2015-09-28T00:12:47.955Z,42.2
2015-09-28T00:13:00.362Z,42.48
2015-09-28T00:13:12.752Z,42.96
2015-09-28T00:13:25.160Z,43.33
2015-09-28T00:13:37.567Z,43.05
2015-09-28T00:13:49.989Z,42.96
2015-09-28T00:14:02.410Z,42.86
2015-09-28T00:14:14.817Z,42.67
2015-09-28T00:14:27.210Z,42.67
2015-09-28T00:14:39.601Z,42.2
2015-09-28T00:14:51.992Z,42.2
2015-09-28T00:15:03.695Z,41.63
2015-09-28T00:15:16.088Z,41.35
2015-09-28T00:15:28.479Z,41.25
2015-09-28T00:15:40.885Z,40.97
2015-09-28T00:15:53.307Z,40.59
2015-09-28T00:16:05.729Z,40.12
2015-09-28T00:16:18.138Z,40.31
2015-09-28T00:16:30.529Z,40.03
2015-09-28T00:16:42.919Z,40.41
2015-09-28T00:16:54.591Z,40.12
2015-09-28T00:17:06.982Z,40.31
2015-09-28T00:17:19.375Z,40.22
2015-09-28T00:17:31.781Z,40.31
2015-09-28T00:17:44.171Z,40.5
2015-09-28T00:17:56.593Z,40.31
2015-09-28T00:18:09.015Z,40.12
2015-09-28T00:18:21.456Z,39.94
2015-09-28T00:18:33.878Z,39.84
2015-09-28T00:18:46.284Z,39.37
2015-09-28T00:18:58.674Z,39.46
2015-09-28T00:19:11.065Z,39.37
2015-09-28T00:19:23.459Z,38.71
2015-09-28T00:19:35.849Z,38.8
2015-09-28T00:19:48.240Z,38.99
2015-09-28T00:20:00.646Z,39.18
2015-09-28T00:20:13.052Z,39.28
2015-09-28T00:20:25.462Z,39.46
2015-09-28T00:20:37.899Z,39.46
2015-09-28T00:20:50.290Z,39.28
2015-09-28T00:21:02.680Z,39.46
2015-09-28T00:21:14.930Z,39.37
2015-09-28T00:21:27.324Z,39.09
2015-09-28T00:21:39.715Z,38.99
2015-09-28T00:21:52.105Z,38.8
2015-09-28T00:22:04.512Z,38.61
2015-09-28T00:22:16.902Z,38.33
2015-09-28T00:22:29.326Z,37.95
2015-09-28T00:22:41.748Z,38.42
2015-09-28T00:22:54.170Z,37.95
2015-09-28T00:23:06.576Z,38.42
2015-09-28T00:23:18.998Z,38.04
2015-09-28T00:23:31.392Z,38.14
2015-09-28T00:23:43.798Z,38.04
2015-09-28T00:23:56.188Z,37.76
2015-09-28T00:24:08.579Z,38.04
2015-09-28T00:24:20.970Z,38.04
2015-09-28T00:24:33.379Z,38.23
2015-09-28T00:24:45.801Z,37.67
2015-09-28T00:24:58.223Z,37.67
2015-09-28T00:25:10.645Z,37.76
2015-09-28T00:25:23.035Z,37.38
2015-09-28T00:25:35.428Z,37.19
2015-09-28T00:25:47.818Z,37.19
2015-09-28T00:26:00.209Z,36.54
2015-09-28T00:26:12.600Z,36.54
2015-09-28T00:26:24.990Z,36.82
2015-09-28T00:26:37.415Z,36.63
2015-09-28T00:26:49.837Z,36.54
2015-09-28T00:27:02.259Z,36.82
2015-09-28T00:27:14.681Z,36.54
2015-09-28T00:27:27.090Z,36.63
2015-09-28T00:27:39.481Z,37.1
2015-09-28T00:27:51.871Z,37.1
2015-09-28T00:28:03.543Z,37.29
2015-09-28T00:28:15.934Z,37.48
2015-09-28T00:28:28.326Z,37.95
2015-09-28T00:28:40.733Z,37.95
2015-09-28T00:28:53.139Z,37.95
2015-09-28T00:29:05.545Z,37.95
2015-09-28T00:29:17.967Z,37.88
2015-09-28T00:29:30.361Z,37.95
2015-09-28T00:29:42.751Z,37.95
2015-09-28T00:29:55.158Z,37.95
2015-09-28T00:30:07.579Z,37.76
2015-09-28T00:30:19.986Z,37.76
2015-09-28T00:30:32.395Z,37.67
2015-09-28T00:30:44.801Z,37.67
2015-09-28T00:30:57.207Z,37.76
2015-09-28T00:31:09.614Z,37.95
2015-09-28T00:31:21.317Z,37.76
2015-09-28T00:31:33.742Z,37.76
2015-09-28T00:31:46.164Z,38.52
2015-09-28T00:31:58.539Z,38.33
2015-09-28T00:32:10.929Z,38.23
2015-09-28T00:32:23.320Z,38.44
2015-09-28T00:32:35.713Z,37.95
2015-09-28T00:32:48.104Z,37.19
2015-09-28T00:33:00.495Z,37.12
2015-09-28T00:33:12.745Z,37.12
2015-09-28T00:33:25.151Z,36.55
2015-09-28T00:33:37.575Z,36.63
2015-09-28T00:33:49.997Z,36.65
2015-09-28T00:34:02.419Z,36.36
2015-09-28T00:34:14.825Z,36.54
2015-09-28T00:34:27.215Z,36.63
2015-09-28T00:34:39.609Z,36.63
2015-09-28T00:34:52.015Z,36.44
2015-09-28T00:35:04.406Z,36.72
2015-09-28T00:35:16.797Z,36.54
2015-09-28T00:35:29.187Z,36.36
2015-09-28T00:35:41.596Z,36.44
2015-09-28T00:35:54.003Z,36.74
2015-09-28T00:36:06.425Z,36.83
2015-09-28T00:36:18.846Z,36.82
2015-09-28T00:36:31.268Z,36.54
2015-09-28T00:36:43.692Z,36.91
2015-09-28T00:36:56.083Z,36.82
2015-09-28T00:37:08.473Z,36.93
2015-09-28T00:37:20.864Z,36.63
2015-09-28T00:37:33.258Z,36.65
2015-09-28T00:37:45.648Z,37.21
2015-09-28T00:37:58.055Z,37.02
2015-09-28T00:38:10.461Z,37.29
2015-09-28T00:38:22.883Z,37.67
2015-09-28T00:38:34.603Z,37.85
2015-09-28T00:38:46.994Z,37.76
2015-09-28T00:38:58.682Z,37.31
2015-09-28T00:39:11.088Z,36.91
2015-09-28T00:39:23.478Z,37.01
2015-09-28T00:39:35.872Z,37.19
2015-09-28T00:39:48.278Z,37.02
2015-09-28T00:40:00.700Z,36.91
2015-09-28T00:40:13.122Z,36.82
2015-09-28T00:40:25.513Z,37.02
2015-09-28T00:40:37.922Z,37.29
2015-09-28T00:40:50.156Z,37.29
2015-09-28T00:41:02.563Z,36.82
2015-09-28T00:41:14.969Z,36.63
2015-09-28T00:41:27.391Z,36.46
2015-09-28T00:41:39.815Z,35.8
2015-09-28T00:41:52.205Z,35.61
2015-09-28T00:42:04.596Z,35.71
2015-09-28T00:42:17.002Z,35.14
2015-09-28T00:42:29.393Z,35.33
2015-09-28T00:42:41.803Z,35.4
2015-09-28T00:42:54.194Z,35.14
2015-09-28T00:43:06.584Z,35.14
2015-09-28T00:43:19.006Z,35.8
2015-09-28T00:43:31.397Z,35.71
2015-09-28T00:43:43.822Z,35.61
2015-09-28T00:43:56.243Z,36.08
2015-09-28T00:44:08.681Z,36.08
2015-09-28T00:44:20.368Z,36.65
2015-09-28T00:44:32.759Z,36.55
2015-09-28T00:44:45.152Z,36.36
2015-09-28T00:44:57.542Z,36.65
2015-09-28T00:45:09.949Z,35.99
2015-09-28T00:45:22.339Z,35.8
2015-09-28T00:45:34.730Z,35.71
2015-09-28T00:45:47.139Z,35.42
2015-09-28T00:45:59.561Z,35.42
2015-09-28T00:46:11.967Z,35.14
2015-09-28T00:46:23.686Z,35.42
2015-09-28T00:46:36.092Z,35.23
2015-09-28T00:46:48.485Z,34.95
2015-09-28T00:47:00.735Z,34.95
2015-09-28T00:47:13.125Z,34.85
2015-09-28T00:47:25.532Z,34.47
2015-09-28T00:47:37.922Z,34.66
2015-09-28T00:47:50.347Z,34.47
2015-09-28T00:48:02.753Z,34.66
2015-09-28T00:48:15.175Z,34.66
2015-09-28T00:48:27.441Z,34.47
2015-09-28T00:48:39.863Z,34.19
2015-09-28T00:48:52.303Z,34.57
2015-09-28T00:49:04.694Z,34.66
2015-09-28T00:49:17.085Z,33.91
2015-09-28T00:49:29.475Z,34
2015-09-28T00:49:41.869Z,34.28
2015-09-28T00:49:54.275Z,34
2015-09-28T00:50:06.650Z,33.62
2015-09-28T00:50:19.056Z,33.91
2015-09-28T00:50:31.463Z,34.1
2015-09-28T00:50:43.871Z,33.62
2015-09-28T00:50:56.293Z,33.62
2015-09-28T00:51:08.730Z,33.81
2015-09-28T00:51:21.152Z,33.44
2015-09-28T00:51:33.543Z,33.44
2015-09-28T00:51:45.936Z,33.34
2015-09-28T00:51:58.343Z,33.15
2015-09-28T00:52:10.749Z,33.72
2015-09-28T00:52:23.124Z,33.44
2015-09-28T00:52:35.530Z,33.72
2015-09-28T00:52:47.938Z,33.62
2015-09-28T00:53:00.376Z,33.72
2015-09-28T00:53:12.798Z,34.19
2015-09-28T00:53:25.235Z,34.1
2015-09-28T00:53:37.641Z,34
2015-09-28T00:53:50.036Z,34.57
2015-09-28T00:54:02.427Z,34.47
2015-09-28T00:54:14.833Z,34.57
2015-09-28T00:54:27.224Z,34.57
2015-09-28T00:54:39.614Z,34.66
2015-09-28T00:54:52.007Z,34
2015-09-28T00:55:04.413Z,34.28
2015-09-28T00:55:16.819Z,34
2015-09-28T00:55:29.241Z,34.1
2015-09-28T00:55:41.663Z,33.62
2015-09-28T00:55:54.072Z,33.62
2015-09-28T00:56:06.463Z,33.53
2015-09-28T00:56:18.150Z,33.53
2015-09-28T00:56:29.822Z,33.62
2015-09-28T00:56:42.197Z,34.1
2015-09-28T00:56:54.590Z,33.62
2015-09-28T00:57:06.981Z,33.81
2015-09-28T00:57:19.402Z,33.91
2015-09-28T00:57:31.809Z,33.62
2015-09-28T00:57:44.231Z,33.72
2015-09-28T00:57:56.655Z,33.44
2015-09-28T00:58:09.062Z,33.62
2015-09-28T00:58:21.468Z,33.25
2015-09-28T00:58:33.843Z,33.34
2015-09-28T00:58:46.234Z,33.34
2015-09-28T00:58:58.627Z,33.44
2015-09-28T00:59:11.033Z,33.53
2015-09-28T00:59:23.424Z,33.15
2015-09-28T00:59:35.830Z,33.62
2015-09-28T00:59:48.252Z,33.72
2015-09-28T01:00:00.692Z,33.91
2015-09-28T01:00:13.114Z,34
2015-09-28T01:00:25.504Z,34.76
2015-09-28T01:00:37.739Z,34.76
2015-09-28T01:00:50.145Z,34.95
2015-09-28T01:01:02.539Z,35.33
2015-09-28T01:01:14.946Z,35.71
2015-09-28T01:01:27.336Z,35.61
2015-09-28T01:01:39.727Z,36.27
2015-09-28T01:01:52.133Z,36.55
2015-09-28T01:02:04.527Z,37.12
2015-09-28T01:02:16.949Z,37.31
2015-09-28T01:02:29.371Z,37.95
2015-09-28T01:02:41.761Z,37.67
2015-09-28T01:02:54.152Z,38.23
2015-09-28T01:03:06.544Z,38.61
2015-09-28T01:03:18.232Z,38.71
2015-09-28T01:03:30.638Z,38.92
2015-09-28T01:03:43.029Z,39.18
2015-09-28T01:03:55.435Z,38.8
2015-09-28T01:04:07.844Z,39.65
2015-09-28T01:04:20.266Z,39.56
2015-09-28T01:04:32.704Z,39.94
2015-09-28T01:04:45.094Z,40.31
2015-09-28T01:04:57.485Z,40.31
2015-09-28T01:05:09.879Z,41.06
2015-09-28T01:05:22.269Z,41.44
2015-09-28T01:05:34.675Z,41.25
2015-09-28T01:05:47.066Z,41.92
2015-09-28T01:05:59.319Z,42.39
2015-09-28T01:06:11.725Z,42.67
2015-09-28T01:06:23.444Z,42.86
2015-09-28T01:06:35.850Z,43.15
2015-09-28T01:06:48.257Z,43.62
2015-09-28T01:07:00.649Z,43.05
2015-09-28T01:07:13.040Z,43.52
2015-09-28T01:07:25.430Z,44.09
2015-09-28T01:07:37.837Z,44.09
2015-09-28T01:07:50.227Z,44.27
2015-09-28T01:08:02.621Z,44.46
2015-09-28T01:08:15.027Z,44.37
2015-09-28T01:08:27.449Z,44.46
2015-09-28T01:08:39.871Z,44.18
2015-09-28T01:08:52.308Z,44.27
2015-09-28T01:09:04.686Z,44.18
2015-09-28T01:09:17.093Z,44.27
2015-09-28T01:09:29.499Z,44.46
2015-09-28T01:09:41.890Z,43.71
2015-09-28T01:09:54.280Z,43.33
2015-09-28T01:10:06.673Z,42.58
2015-09-28T01:10:19.079Z,41.92
2015-09-28T01:10:31.329Z,41.25
2015-09-28T01:10:43.751Z,40.88
2015-09-28T01:10:56.173Z,40.12
2015-09-28T01:11:08.598Z,39.46
2015-09-28T01:11:20.988Z,39.28
2015-09-28T01:11:33.379Z,38.8
2015-09-28T01:11:45.770Z,38.14
2015-09-28T01:11:58.176Z,38.04
2015-09-28T01:12:10.568Z,37.29
2015-09-28T01:12:22.990Z,36.91
2015-09-28T01:12:35.397Z,36.91
2015-09-28T01:12:47.818Z,36.54
2015-09-28T01:13:00.256Z,36.54
2015-09-28T01:13:12.650Z,36.63
2015-09-28T01:13:25.040Z,37.01
2015-09-28T01:13:37.431Z,36.91
2015-09-28T01:13:49.821Z,37.48
2015-09-28T01:14:02.212Z,38.14
2015-09-28T01:14:14.607Z,37.88
2015-09-28T01:14:27.013Z,38.04
2015-09-28T01:14:39.419Z,38.35
2015-09-28T01:14:51.841Z,38.71
2015-09-28T01:15:04.263Z,38.71
2015-09-28T01:15:16.687Z,39.09
2015-09-28T01:15:29.109Z,39.46
2015-09-28T01:15:41.499Z,39.46
2015-09-28T01:15:53.906Z,39.84
2015-09-28T01:16:06.296Z,40.41
2015-09-28T01:16:18.705Z,40.5
2015-09-28T01:16:31.080Z,41.16
2015-09-28T01:16:43.487Z,41.06
2015-09-28T01:16:55.893Z,41.06
2015-09-28T01:17:08.299Z,41.35
2015-09-28T01:17:20.724Z,41.63
2015-09-28T01:17:33.146Z,42.01
2015-09-28T01:17:45.537Z,42.2
2015-09-28T01:17:57.927Z,42.86
2015-09-28T01:18:10.335Z,43.05
2015-09-28T01:18:22.726Z,43.05
2015-09-28T01:18:35.117Z,43.33
2015-09-28T01:18:47.523Z,43.15
2015-09-28T01:18:59.914Z,43.62
2015-09-28T01:19:12.338Z,43.99
2015-09-28T01:19:24.745Z,43.99
2015-09-28T01:19:37.167Z,44.37
2015-09-28T01:19:49.557Z,44.27
2015-09-28T01:20:01.948Z,44.37
2015-09-28T01:20:14.356Z,44.46
2015-09-28T01:20:26.747Z,44.37
2015-09-28T01:20:39.137Z,44.18
2015-09-28T01:20:51.528Z,44.56
2015-09-28T01:21:03.919Z,44.46
2015-09-28T01:21:16.343Z,44.46
2015-09-28T01:21:28.781Z,44.37
2015-09-28T01:21:41.203Z,44.37
2015-09-28T01:21:53.609Z,44.65
2015-09-28T01:22:06.000Z,44.56
2015-09-28T01:22:18.393Z,44.65
2015-09-28T01:22:30.800Z,45.03
2015-09-28T01:22:43.190Z,44.94
2015-09-28T01:22:55.581Z,45.41
2015-09-28T01:23:07.971Z,45.6
2015-09-28T01:23:20.381Z,45.88
2015-09-28T01:23:32.787Z,45.6
2015-09-28T01:23:45.209Z,45.5
2015-09-28T01:23:57.631Z,45.6
2015-09-28T01:24:10.053Z,45.6
2015-09-28T01:24:21.742Z,45.5
2015-09-28T01:24:34.133Z,45.79
2015-09-28T01:24:46.539Z,45.69
2015-09-28T01:24:58.789Z,45.41
2015-09-28T01:25:11.180Z,45.22
2015-09-28T01:25:23.573Z,45.13
2015-09-28T01:25:35.979Z,44.65
2015-09-28T01:25:48.386Z,44.94
2015-09-28T01:26:00.808Z,44.46
2015-09-28T01:26:13.229Z,44.27
2015-09-28T01:26:25.639Z,43.8
2015-09-28T01:26:38.045Z,43.62
2015-09-28T01:26:50.452Z,43.05
2015-09-28T01:27:03.030Z,43.43
2015-09-28T01:27:15.582Z,42.96
2015-09-28T01:27:28.301Z,43.05
2015-09-28T01:27:40.754Z,43.05
2015-09-28T01:27:52.785Z,42.77
2015-09-28T01:28:05.676Z,42.2
2015-09-28T01:28:18.101Z,41.25
2015-09-28T01:28:30.444Z,40.88
2015-09-28T01:28:43.241Z,39.84
2015-09-28T01:28:56.528Z,39.18
2015-09-28T01:29:09.309Z,38.61
2015-09-28T01:29:21.968Z,38.61
2015-09-28T01:29:34.405Z,38.33
2015-09-28T01:29:47.187Z,38.52
2015-09-28T01:30:00.030Z,38.61
2015-09-28T01:30:12.655Z,38.71
2015-09-28T01:30:25.079Z,38.61
2015-09-28T01:30:37.470Z,39.37
2015-09-28T01:30:49.876Z,39.56
2015-09-28T01:31:02.267Z,39.65
2015-09-28T01:31:14.704Z,39.94
2015-09-28T01:31:27.099Z,39.65
2015-09-28T01:31:39.568Z,39.37
2015-09-28T01:31:51.974Z,39.09
2015-09-28T01:32:04.380Z,38.61
2015-09-28T01:32:16.820Z,38.52
2015-09-28T01:32:29.242Z,38.8
2015-09-28T01:32:41.679Z,38.71
2015-09-28T01:32:54.070Z,38.52
2015-09-28T01:33:06.460Z,38.61
2015-09-28T01:33:18.854Z,39.09
2015-09-28T01:33:31.245Z,38.71
2015-09-28T01:33:43.635Z,39.18
2015-09-28T01:33:56.041Z,38.8
2015-09-28T01:34:08.432Z,39.37
2015-09-28T01:34:20.841Z,39.56
2015-09-28T01:34:33.279Z,39.65
2015-09-28T01:34:45.701Z,39.65
2015-09-28T01:34:58.107Z,39.46
2015-09-28T01:35:10.498Z,39.94
2015-09-28T01:35:22.890Z,40.22
2015-09-28T01:35:35.281Z,40.5
2015-09-28T01:35:47.687Z,40.59
2015-09-28T01:36:00.078Z,40.88
2015-09-28T01:36:12.484Z,41.06
2015-09-28T01:36:24.909Z,41.44
2015-09-28T01:36:37.346Z,41.06
2015-09-28T01:36:49.815Z,41.54
2015-09-28T01:37:02.211Z,41.82
2015-09-28T01:37:14.586Z,41.92
2015-09-28T01:37:26.994Z,42.2
2015-09-28T01:37:39.384Z,42.2
2015-09-28T01:37:51.775Z,42.77
2015-09-28T01:38:04.181Z,42.86
2015-09-28T01:38:16.603Z,42.77
2015-09-28T01:38:29.012Z,43.24
2015-09-28T01:38:41.484Z,43.05
2015-09-28T01:38:53.906Z,43.33
2015-09-28T01:39:06.343Z,43.15
2015-09-28T01:39:18.750Z,43.43
2015-09-28T01:39:31.143Z,42.3
2015-09-28T01:39:43.550Z,41.63
2015-09-28T01:39:55.940Z,41.16
2015-09-28T01:40:08.331Z,40.41
2015-09-28T01:40:20.721Z,39.28
2015-09-28T01:40:33.131Z,38.99
2015-09-28T01:40:45.537Z,38.71
2015-09-28T01:40:57.943Z,37.85
2015-09-28T01:41:10.381Z,38.04
2015-09-28T01:41:22.820Z,37.67
2015-09-28T01:41:35.133Z,37.29
2015-09-28T01:41:47.508Z,37.29
2015-09-28T01:41:59.898Z,37.19
2015-09-28T01:42:12.133Z,37.1
2015-09-28T01:42:24.542Z,36.82
2015-09-28T01:42:36.933Z,37.48
2015-09-28T01:42:49.339Z,37.38
2015-09-28T01:43:01.745Z,37.38
2015-09-28T01:43:14.151Z,37.01
2015-09-28T01:43:26.576Z,36.63
2015-09-28T01:43:38.998Z,35.97
2015-09-28T01:43:51.389Z,35.69
2015-09-28T01:44:03.779Z,35.12
2015-09-28T01:44:16.186Z,34.55
2015-09-28T01:44:28.579Z,33.61
2015-09-28T01:44:41.001Z,33.15
2015-09-28T01:44:53.407Z,33.06
2015-09-28T01:45:05.689Z,32.4
2015-09-28T01:45:18.110Z,31.74
2015-09-28T01:45:30.550Z,30.98
2015-09-28T01:45:42.972Z,30.98
2015-09-28T01:45:55.394Z,30.22
2015-09-28T01:46:07.784Z,29.94
2015-09-28T01:46:20.175Z,29.28
2015-09-28T01:46:32.569Z,29
2015-09-28T01:46:44.975Z,28.9
2015-09-28T01:46:57.381Z,28.52
2015-09-28T01:47:09.772Z,28.05
2015-09-28T01:47:22.194Z,27.67
2015-09-28T01:47:34.603Z,27.96
2015-09-28T01:47:47.025Z,27.86
2015-09-28T01:47:59.447Z,27.86
2015-09-28T01:48:11.884Z,27.67
2015-09-28T01:48:24.275Z,27.77
2015-09-28T01:48:36.668Z,27.67
2015-09-28T01:48:49.059Z,27.77
2015-09-28T01:49:01.450Z,27.77
2015-09-28T01:49:13.840Z,27.48
2015-09-28T01:49:26.231Z,27.48
2015-09-28T01:49:38.639Z,27.58
2015-09-28T01:49:51.045Z,27.2
2015-09-28T01:50:03.452Z,27.11
2015-09-28T01:50:15.873Z,27.29
2015-09-28T01:50:28.295Z,27.11
2015-09-28T01:50:40.689Z,27.01
2015-09-28T01:50:53.095Z,27.58
2015-09-28T01:51:05.470Z,26.92
2015-09-28T01:51:17.876Z,27.29
2015-09-28T01:51:30.286Z,27.01
2015-09-28T01:51:42.676Z,26.73
2015-09-28T01:51:55.067Z,26.54
2015-09-28T01:52:07.489Z,26.73
2015-09-28T01:52:19.754Z,26.64
2015-09-28T01:52:31.460Z,26.26
2015-09-28T01:52:43.897Z,26.26
2015-09-28T01:52:56.303Z,26.45
2015-09-28T01:53:08.694Z,26.45
2015-09-28T01:53:21.085Z,26.26
2015-09-28T01:53:33.495Z,26.54
2015-09-28T01:53:45.885Z,26.45
2015-09-28T01:53:58.292Z,26.64
2015-09-28T01:54:10.682Z,26.54
2015-09-28T01:54:23.089Z,26.35
2015-09-28T01:54:35.512Z,26.54
2015-09-28T01:54:47.934Z,26.64
2015-09-28T01:55:00.372Z,26.64
2015-09-28T01:55:12.778Z,26.82
2015-09-28T01:55:25.216Z,26.54
2015-09-28T01:55:37.624Z,26.35
2015-09-28T01:55:50.030Z,26.64
2015-09-28T01:56:02.514Z,26.26
2015-09-28T01:56:14.780Z,26.45
2015-09-28T01:56:27.030Z,26.27
2015-09-28T01:56:39.554Z,26.18
2015-09-28T01:56:51.991Z,25.88
2015-09-28T01:57:04.429Z,25.88
2015-09-28T01:57:16.132Z,25.88
2015-09-28T01:57:28.554Z,25.69
2015-09-28T01:57:40.947Z,25.5
2015-09-28T01:57:53.338Z,25.5
2015-09-28T01:58:05.729Z,25.51
2015-09-28T01:58:18.135Z,25.51
2015-09-28T01:58:30.541Z,25.7
2015-09-28T01:58:42.918Z,25.8
2015-09-28T01:58:55.324Z,25.61
2015-09-28T01:59:07.731Z,25.99
2015-09-28T01:59:20.168Z,26.08
2015-09-28T01:59:32.590Z,26.37
2015-09-28T01:59:45.015Z,26.37
2015-09-28T01:59:57.484Z,26.84
2015-09-28T02:00:09.890Z,26.82
2015-09-28T02:00:22.280Z,27.11
2015-09-28T02:00:34.734Z,27.58
2015-09-28T02:00:47.143Z,27.39
2015-09-28T02:00:59.533Z,27.39
2015-09-28T02:01:11.940Z,27.58
2015-09-28T02:01:24.346Z,27.48
2015-09-28T02:01:36.752Z,27.39
2015-09-28T02:01:49.192Z,27.67
2015-09-28T02:02:01.629Z,27.69
2015-09-28T02:02:14.020Z,27.77
2015-09-28T02:02:26.410Z,27.96
2015-09-28T02:02:38.801Z,28.52
2015-09-28T02:02:51.210Z,28.43
2015-09-28T02:03:03.601Z,28.43
2015-09-28T02:03:15.992Z,28.52
2015-09-28T02:03:28.398Z,28.9
2015-09-28T02:03:40.804Z,28.52
2015-09-28T02:03:53.229Z,28.81
2015-09-28T02:04:05.651Z,29.09
2015-09-28T02:04:18.073Z,29.09
2015-09-28T02:04:30.510Z,29.28
2015-09-28T02:04:42.901Z,29.19
2015-09-28T02:04:55.309Z,29.47
2015-09-28T02:05:07.700Z,29.66
2015-09-28T02:05:20.090Z,29.66
2015-09-28T02:05:32.481Z,29.57
2015-09-28T02:05:44.872Z,29.85
2015-09-28T02:05:57.281Z,29.57
2015-09-28T02:06:09.687Z,29.57
2015-09-28T02:06:22.109Z,29.57
2015-09-28T02:06:34.531Z,29.66
2015-09-28T02:06:46.956Z,29.57
2015-09-28T02:06:59.362Z,29.66
2015-09-28T02:07:11.784Z,29.57
2015-09-28T02:07:24.174Z,29.09
2015-09-28T02:07:36.581Z,29.19
2015-09-28T02:07:48.973Z,29.19
2015-09-28T02:08:01.364Z,29.09
2015-09-28T02:08:13.755Z,28.9
2015-09-28T02:08:26.176Z,29
2015-09-28T02:08:38.583Z,29.19
2015-09-28T02:08:51.023Z,28.9
2015-09-28T02:09:03.461Z,28.9
2015-09-28T02:09:15.851Z,29
2015-09-28T02:09:28.258Z,29.09
2015-09-28T02:09:40.648Z,29.09
2015-09-28T02:09:53.042Z,29.09
2015-09-28T02:10:05.276Z,29
2015-09-28T02:10:17.667Z,28.52
2015-09-28T02:10:30.073Z,28.9
2015-09-28T02:10:42.479Z,28.43
2015-09-28T02:10:54.903Z,28.24
2015-09-28T02:11:07.169Z,28.05
2015-09-28T02:11:19.559Z,27.86
2015-09-28T02:11:31.966Z,27.96
2015-09-28T02:11:44.356Z,27.67
2015-09-28T02:11:56.750Z,27.29
2015-09-28T02:12:09.156Z,27.29
2015-09-28T02:12:21.547Z,27.39
2015-09-28T02:12:33.953Z,27.48
2015-09-28T02:12:46.344Z,27.58
2015-09-28T02:12:58.612Z,27.39
2015-09-28T02:13:10.878Z,27.58
2015-09-28T02:13:23.300Z,27.39
2015-09-28T02:13:35.690Z,27.67
2015-09-28T02:13:48.081Z,27.48
2015-09-28T02:14:00.489Z,27.58
2015-09-28T02:14:12.880Z,27.48
2015-09-28T02:14:25.255Z,27.58
2015-09-28T02:14:37.911Z,27.67
2015-09-28T02:14:50.317Z,27.86
2015-09-28T02:15:02.728Z,28.15
2015-09-28T02:15:15.165Z,27.77
2015-09-28T02:15:27.587Z,27.77
2015-09-28T02:15:40.009Z,27.67
2015-09-28T02:15:52.431Z,27.77
2015-09-28T02:16:04.840Z,27.58
2015-09-28T02:16:17.231Z,27.48
2015-09-28T02:16:29.621Z,27.58
2015-09-28T02:16:42.012Z,27.58
2015-09-28T02:16:54.434Z,27.29
2015-09-28T02:17:06.842Z,27.11
2015-09-28T02:17:19.280Z,26.64
2015-09-28T02:17:31.717Z,26.35
2015-09-28T02:17:44.108Z,26.45
2015-09-28T02:17:56.498Z,25.88
2015-09-28T02:18:08.908Z,25.88
2015-09-28T02:18:21.298Z,25.69
2015-09-28T02:18:33.689Z,25.31
2015-09-28T02:18:46.079Z,25.31
2015-09-28T02:18:58.486Z,25.22
2015-09-28T02:19:10.895Z,25.41
2015-09-28T02:19:23.317Z,24.93
2015-09-28T02:19:35.754Z,24.85
2015-09-28T02:19:48.161Z,24.93
2015-09-28T02:20:00.569Z,24.74
2015-09-28T02:20:12.944Z,24.93
2015-09-28T02:20:25.366Z,24.93
2015-09-28T02:20:37.772Z,24.84
2015-09-28T02:20:50.163Z,24.27
2015-09-28T02:21:02.549Z,24.95
2015-09-28T02:21:14.971Z,24.85
2015-09-28T02:21:27.377Z,24.76
2015-09-28T02:21:39.799Z,24.95
2015-09-28T02:21:52.237Z,24.85
2015-09-28T02:22:04.637Z,24.95
2015-09-28T02:22:17.012Z,24.48
2015-09-28T02:22:29.403Z,24.57
2015-09-28T02:22:41.809Z,24.38
2015-09-28T02:22:54.043Z,24.19
2015-09-28T02:23:06.443Z,24.1
2015-09-28T02:23:18.834Z,23.91
2015-09-28T02:23:31.240Z,23.44
2015-09-28T02:23:43.647Z,23.25
2015-09-28T02:23:55.365Z,23.25
2015-09-28T02:24:07.797Z,23.15
2015-09-28T02:24:19.469Z,23.06
2015-09-28T02:24:31.859Z,23.25
2015-09-28T02:24:44.250Z,23.34
2015-09-28T02:24:56.641Z,23.15
2015-09-28T02:25:09.041Z,23.15
2015-09-28T02:25:21.447Z,23.06
2015-09-28T02:25:33.853Z,22.87
2015-09-28T02:25:46.260Z,23.06
2015-09-28T02:25:58.681Z,22.77
2015-09-28T02:26:11.103Z,22.96
2015-09-28T02:26:23.494Z,22.96
2015-09-28T02:26:35.869Z,22.87
2015-09-28T02:26:48.275Z,22.77
2015-09-28T02:27:00.666Z,22.87
2015-09-28T02:27:13.056Z,22.58
2015-09-28T02:27:25.447Z,22.58
2015-09-28T02:27:37.869Z,22.77
2015-09-28T02:27:50.275Z,22.68
2015-09-28T02:28:02.697Z,22.96
2015-09-28T02:28:15.119Z,22.49
2015-09-28T02:28:27.541Z,22.58
2015-09-28T02:28:39.994Z,21.83
2015-09-28T02:28:52.400Z,22.11
2015-09-28T02:29:04.791Z,22.2
2015-09-28T02:29:16.478Z,22.2
2015-09-28T02:29:28.869Z,22.11
2015-09-28T02:29:41.260Z,22.11
2015-09-28T02:29:53.666Z,22.39
2015-09-28T02:30:06.088Z,22.3
2015-09-28T02:30:18.494Z,22.39
2015-09-28T02:30:30.931Z,22.39
2015-09-28T02:30:43.369Z,22.96
2015-09-28T02:30:55.791Z,23.15
2015-09-28T02:31:08.182Z,23.44
2015-09-28T02:31:20.573Z,23.34
2015-09-28T02:31:32.964Z,24.01
2015-09-28T02:31:45.354Z,24.1
2015-09-28T02:31:57.745Z,23.91
2015-09-28T02:32:10.153Z,23.53
2015-09-28T02:32:22.559Z,23.82
2015-09-28T02:32:34.966Z,23.34
2015-09-28T02:32:46.684Z,23.25
2015-09-28T02:32:59.106Z,23.34
2015-09-28T02:33:11.560Z,23.25
2015-09-28T02:33:23.951Z,23.15
2015-09-28T02:33:36.326Z,23.25
2015-09-28T02:33:48.732Z,23.25
2015-09-28T02:34:01.139Z,22.96
2015-09-28T02:34:13.531Z,23.06
2015-09-28T02:34:25.937Z,22.68
2015-09-28T02:34:38.328Z,22.96
2015-09-28T02:34:50.734Z,22.96
2015-09-28T02:35:03.156Z,22.58
2015-09-28T02:35:15.579Z,22.87
2015-09-28T02:35:28.017Z,22.87
2015-09-28T02:35:40.423Z,22.77
2015-09-28T02:35:52.829Z,22.58
2015-09-28T02:36:05.220Z,22.68
2015-09-28T02:36:17.457Z,22.39
2015-09-28T02:36:29.863Z,22.77
2015-09-28T02:36:42.254Z,22.49
2015-09-28T02:36:54.676Z,22.68
2015-09-28T02:37:07.098Z,22.68
2015-09-28T02:37:19.522Z,22.96
2015-09-28T02:37:31.943Z,22.77
2015-09-28T02:37:44.365Z,23.15
2015-09-28T02:37:56.772Z,23.25
2015-09-28T02:38:09.193Z,23.25
2015-09-28T02:38:21.587Z,23.25
2015-09-28T02:38:33.978Z,23.06
2015-09-28T02:38:46.368Z,23.15
2015-09-28T02:38:58.759Z,23.44
2015-09-28T02:39:11.198Z,23.25
2015-09-28T02:39:23.605Z,22.87
2015-09-28T02:39:36.011Z,22.77
2015-09-28T02:39:48.433Z,22.77
2015-09-28T02:40:00.870Z,23.25
2015-09-28T02:40:13.294Z,23.06